createdAt,value
2022-10-14T00:03:00.545Z,97649.22
2022-10-14T00:06:06.625Z,97662.47
2022-10-14T00:09:10.905Z,97667.22
2022-10-14T00:12:15.244Z,97676.91
2022-10-14T00:15:18.343Z,97691.50
2022-10-14T00:18:21.858Z,97710.88
2022-10-14T00:21:26.886Z,97722.34
2022-10-14T00:24:29.847Z,97727.00
2022-10-14T00:27:34.073Z,97727.81
2022-10-14T00:30:38.479Z,97740.75
2022-10-14T00:33:41.411Z,97753.75
2022-10-14T00:36:44.612Z,97760.00
2022-10-14T00:39:56.105Z,97755.38
2022-10-14T00:43:01.978Z,97763.66
2022-10-14T00:46:04.949Z,97762.00
2022-10-14T00:49:13.000Z,97771.88
2022-10-14T00:52:18.853Z,97783.16
2022-10-14T00:55:21.902Z,97784.22
2022-10-14T00:58:26.353Z,97778.84
2022-10-14T01:01:29.272Z,97791.91
2022-10-14T01:04:32.678Z,97797.25
2022-10-14T01:07:45.341Z,97804.25
2022-10-14T01:10:56.305Z,97802.91
2022-10-14T01:14:08.720Z,97793.66
2022-10-14T01:17:17.972Z,97798.41
2022-10-14T01:20:42.655Z,97795.47
2022-10-14T01:24:16.492Z,97792.31
2022-10-14T01:27:51.947Z,97796.41
2022-10-14T01:31:03.005Z,97795.13
2022-10-14T01:34:11.210Z,97791.94
2022-10-14T01:37:18.279Z,97789.31
2022-10-14T01:40:28.320Z,97802.38
2022-10-14T01:43:34.149Z,97800.03
2022-10-14T01:46:40.652Z,97805.13
2022-10-14T01:49:47.775Z,97811.72
2022-10-14T01:52:54.142Z,97804.31
2022-10-14T01:55:58.788Z,97793.75
2022-10-14T01:59:03.360Z,97787.22
2022-10-14T02:02:09.033Z,97792.81
2022-10-14T02:05:18.105Z,97784.34
2022-10-14T02:08:28.484Z,97784.16
2022-10-14T02:11:38.957Z,97778.56
2022-10-14T02:14:50.281Z,97777.56
2022-10-14T02:17:58.838Z,97778.38
2022-10-14T02:21:08.611Z,97769.00
2022-10-14T02:24:19.104Z,97764.88
2022-10-14T02:27:24.395Z,97773.44
2022-10-14T02:30:29.711Z,97770.66
2022-10-14T02:33:38.851Z,97771.13
2022-10-14T02:36:44.893Z,97766.41
2022-10-14T02:39:53.453Z,97765.81
2022-10-14T02:42:56.539Z,97767.09
2022-10-14T02:46:01.393Z,97763.50
2022-10-14T02:49:05.819Z,97771.03
2022-10-14T02:52:08.703Z,97758.53
2022-10-14T02:55:11.592Z,97761.38
2022-10-14T02:58:14.657Z,97762.19
2022-10-14T03:01:17.568Z,97772.50
2022-10-14T03:04:22.113Z,97774.94
2022-10-14T03:07:27.654Z,97772.38
2022-10-14T03:10:33.492Z,97771.56
2022-10-14T03:13:36.523Z,97774.03
2022-10-14T03:16:39.586Z,97773.72
2022-10-14T03:19:44.022Z,97768.75
2022-10-14T03:22:48.377Z,97764.19
2022-10-14T03:25:52.179Z,97769.47
2022-10-14T03:29:00.788Z,97777.66
2022-10-14T03:32:26.017Z,97783.84
2022-10-14T03:35:48.758Z,97787.50
2022-10-14T03:38:55.423Z,97777.59
2022-10-14T03:42:18.677Z,97766.75
2022-10-14T03:45:24.033Z,97767.22
2022-10-14T03:48:28.688Z,97768.56
2022-10-14T03:51:35.262Z,97770.66
2022-10-14T03:54:51.998Z,97772.03
2022-10-14T03:57:55.097Z,97762.28
2022-10-14T04:00:58.353Z,97761.81
2022-10-14T04:04:13.173Z,97764.94
2022-10-14T04:07:17.401Z,97760.28
2022-10-14T04:10:27.482Z,97751.84
2022-10-14T04:13:31.791Z,97747.94
2022-10-14T04:16:34.989Z,97749.47
2022-10-14T04:19:43.306Z,97746.78
2022-10-14T04:22:48.534Z,97733.56
2022-10-14T04:26:00.325Z,97734.75
2022-10-14T04:29:03.679Z,97737.75
2022-10-14T04:32:14.351Z,97739.19
2022-10-14T04:35:17.415Z,97733.91
2022-10-14T04:38:25.512Z,97725.84
2022-10-14T04:41:33.528Z,97732.53
2022-10-14T04:44:37.685Z,97741.97
2022-10-14T04:47:44.936Z,97728.91
2022-10-14T04:50:52.903Z,97733.34
2022-10-14T04:54:23.376Z,97729.00
2022-10-14T04:57:31.287Z,97731.84
2022-10-14T05:00:34.243Z,97731.59
2022-10-14T05:03:45.293Z,97734.44
2022-10-14T05:06:48.430Z,97736.53
2022-10-14T05:09:56.643Z,97737.81
2022-10-14T05:13:13.622Z,97735.50
2022-10-14T05:16:28.670Z,97739.94
2022-10-14T05:19:32.229Z,97739.66
2022-10-14T05:22:35.682Z,97752.59
2022-10-14T05:25:41.142Z,97757.97
2022-10-14T05:28:44.164Z,97762.66
2022-10-14T05:31:47.208Z,97767.25
2022-10-14T05:35:00.685Z,97772.16
2022-10-14T05:38:12.320Z,97768.94
2022-10-14T05:41:19.119Z,97772.88
2022-10-14T05:44:22.056Z,97780.09
2022-10-14T05:47:25.822Z,97787.97
2022-10-14T05:50:34.437Z,97790.25
2022-10-14T05:53:43.642Z,97785.28
2022-10-14T05:56:53.103Z,97795.81
2022-10-14T05:59:56.398Z,97792.78
2022-10-14T06:02:59.576Z,97783.50
2022-10-14T06:06:03.314Z,97783.50
2022-10-14T06:09:11.066Z,97782.50
2022-10-14T06:12:15.702Z,97781.84
2022-10-14T06:15:19.106Z,97780.28
2022-10-14T06:18:22.208Z,97791.25
2022-10-14T06:21:25.133Z,97782.13
2022-10-14T06:24:28.020Z,97791.34
2022-10-14T06:27:32.387Z,97811.88
2022-10-14T06:30:35.329Z,97824.06
2022-10-14T06:33:38.168Z,97829.97
2022-10-14T06:36:41.170Z,97834.44
2022-10-14T06:39:45.134Z,97834.19
2022-10-14T06:42:49.552Z,97836.00
2022-10-14T06:45:53.376Z,97835.06
2022-10-14T06:48:56.281Z,97834.84
2022-10-14T06:51:59.219Z,97840.97
2022-10-14T06:55:02.145Z,97843.66
2022-10-14T06:58:06.414Z,97852.53
2022-10-14T07:01:09.707Z,97859.00
2022-10-14T07:04:12.578Z,97856.06
2022-10-14T07:07:15.448Z,97857.38
2022-10-14T07:10:18.515Z,97857.28
2022-10-14T07:13:22.753Z,97868.28
2022-10-14T07:16:25.774Z,97872.56
2022-10-14T07:19:28.683Z,97882.03
2022-10-14T07:22:33.987Z,97888.00
2022-10-14T07:25:40.620Z,97905.13
2022-10-14T07:28:44.942Z,97913.50
2022-10-14T07:31:47.927Z,97923.44
2022-10-14T07:34:50.916Z,97940.53
2022-10-14T07:37:54.342Z,97937.25
2022-10-14T07:40:59.300Z,97949.66
2022-10-14T07:44:06.453Z,97965.25
2022-10-14T07:47:09.340Z,97978.44
2022-10-14T07:50:12.595Z,97985.72
2022-10-14T07:53:15.470Z,98002.69
2022-10-14T07:56:18.360Z,98008.06
2022-10-14T07:59:22.743Z,98012.34
2022-10-14T08:02:25.689Z,98016.84
2022-10-14T08:05:44.352Z,98027.78
2022-10-14T08:08:47.405Z,98024.00
2022-10-14T08:11:50.528Z,98026.91
2022-10-14T08:14:58.020Z,98033.03
2022-10-14T08:18:00.910Z,98048.72
2022-10-14T08:21:03.776Z,98076.72
2022-10-14T08:24:07.346Z,98076.47
2022-10-14T08:27:10.566Z,98079.22
2022-10-14T08:30:14.752Z,98068.13
2022-10-14T08:33:17.592Z,98061.78
2022-10-14T08:36:21.567Z,98047.50
2022-10-14T08:39:24.558Z,98033.13
2022-10-14T08:42:40.992Z,98018.19
2022-10-14T08:45:50.965Z,97988.41
2022-10-14T08:49:03.411Z,97942.06
2022-10-14T08:52:11.824Z,97899.66
2022-10-14T08:55:33.461Z,97866.16
2022-10-14T08:58:39.870Z,97805.13
2022-10-14T09:01:53.251Z,97749.38
2022-10-14T09:04:56.666Z,97708.69
2022-10-14T09:08:00.642Z,97661.91
2022-10-14T09:11:03.849Z,97628.78
2022-10-14T09:14:10.552Z,97592.78
2022-10-14T09:17:21.173Z,97551.06
2022-10-14T09:20:25.755Z,97525.28
2022-10-14T09:23:29.479Z,97493.94
2022-10-14T09:26:40.789Z,97448.16
2022-10-14T09:29:47.795Z,97408.09
2022-10-14T09:32:53.908Z,97375.72
2022-10-14T09:39:05.329Z,97334.75
2022-10-14T09:42:16.645Z,97327.84
2022-10-14T09:45:22.618Z,97324.59
2022-10-14T09:48:33.976Z,97336.59
2022-10-14T09:51:36.907Z,97329.47
2022-10-14T09:54:39.870Z,97330.91
2022-10-14T09:57:42.787Z,97329.06
2022-10-14T10:00:47.198Z,97327.84
2022-10-14T10:03:53.597Z,97303.81
2022-10-14T10:06:56.910Z,97298.09
2022-10-14T10:10:01.428Z,97292.41
2022-10-14T10:13:04.564Z,97289.56
2022-10-14T10:16:18.056Z,97274.84
2022-10-14T10:19:28.629Z,97271.00
2022-10-14T10:22:36.705Z,97271.63
2022-10-14T10:25:39.631Z,97262.25
2022-10-14T10:28:46.951Z,97267.97
2022-10-14T10:32:14.351Z,97263.44
2022-10-14T10:35:23.590Z,97267.75
2022-10-14T10:38:31.865Z,97260.19
2022-10-14T10:41:49.239Z,97256.91
2022-10-14T10:45:16.385Z,97253.44
2022-10-14T10:48:27.512Z,97252.00
2022-10-14T10:51:39.513Z,97242.00
2022-10-14T10:54:53.348Z,97238.53
2022-10-14T10:58:08.988Z,97228.28
2022-10-14T11:01:26.287Z,97228.88
2022-10-14T11:04:33.941Z,97225.47
2022-10-14T11:08:05.609Z,97225.69
2022-10-14T11:11:40.303Z,97228.50
2022-10-14T11:15:11.611Z,97212.97
2022-10-14T11:18:24.411Z,97219.22
2022-10-14T11:21:35.136Z,97218.25
2022-10-14T11:24:48.236Z,97211.91
2022-10-14T11:27:58.804Z,97208.84
2022-10-14T11:31:09.245Z,97210.09
2022-10-14T11:34:34.741Z,97210.91
2022-10-14T11:37:48.033Z,97220.09
2022-10-14T11:41:01.539Z,97210.09
2022-10-14T11:44:15.188Z,97209.88
2022-10-14T11:47:25.759Z,97201.09
2022-10-14T11:50:34.343Z,97197.63
2022-10-14T11:53:50.287Z,97192.47
2022-10-14T11:57:00.713Z,97192.66
2022-10-14T12:00:41.347Z,97183.00
2022-10-14T12:03:53.063Z,97179.47
2022-10-14T12:07:01.891Z,97178.41
2022-10-14T12:10:14.965Z,97191.44
2022-10-14T12:13:24.003Z,97190.41
2022-10-14T12:16:27.807Z,97183.59
2022-10-14T12:19:31.675Z,97176.41
2022-10-14T12:22:34.993Z,97183.59
2022-10-14T12:25:48.170Z,97181.72
2022-10-14T12:28:54.956Z,97178.81
2022-10-14T12:32:20.939Z,97177.91
2022-10-14T12:35:47.910Z,97169.38
2022-10-14T12:39:31.125Z,97165.84
2022-10-14T12:42:37.813Z,97160.69
2022-10-14T12:45:51.986Z,97156.28
2022-10-14T12:48:55.327Z,97162.03
2022-10-14T12:52:02.195Z,97161.00
2022-10-14T12:55:15.920Z,97164.25
2022-10-14T12:58:31.208Z,97162.13
2022-10-14T13:01:36.905Z,97163.09
2022-10-14T13:04:48.864Z,97160.56
2022-10-14T13:08:12.474Z,97142.44
2022-10-14T13:11:18.166Z,97147.16
2022-10-14T13:14:27.270Z,97142.25
2022-10-14T13:17:46.292Z,97149.50
2022-10-14T13:20:53.945Z,97141.09
2022-10-14T13:23:58.518Z,97136.31
2022-10-14T13:27:14.060Z,97143.44
2022-10-14T13:30:21.935Z,97138.88
2022-10-14T13:33:35.375Z,97148.34
2022-10-14T13:36:51.692Z,97144.78
2022-10-14T13:39:55.214Z,97168.28
2022-10-14T13:43:00.522Z,97153.19
2022-10-14T13:46:08.320Z,97142.94
2022-10-14T13:49:19.671Z,97130.75
2022-10-14T13:52:26.814Z,97136.16
2022-10-14T13:55:30.334Z,97135.34
2022-10-14T14:01:39.949Z,97128.25
2022-10-14T14:04:51.839Z,97127.44
2022-10-14T14:11:21.925Z,97122.75
2022-10-14T14:14:30.217Z,97123.31
2022-10-14T14:17:35.783Z,97124.56
2022-10-14T14:20:40.019Z,97127.28
2022-10-14T14:23:51.253Z,97112.22
2022-10-14T14:26:56.190Z,97099.47
2022-10-14T14:30:00.471Z,97039.44
2022-10-14T14:33:06.104Z,97042.94
2022-10-14T14:36:27.286Z,97050.31
2022-10-14T14:39:37.136Z,97042.84
2022-10-14T14:42:41.676Z,97051.34
2022-10-14T14:45:46.777Z,97059.41
2022-10-14T14:48:55.144Z,97056.06
2022-10-14T14:52:00.420Z,97059.47
2022-10-14T14:55:03.276Z,97066.44
2022-10-14T14:58:13.175Z,97051.34
2022-10-14T15:01:21.412Z,97042.81
2022-10-14T15:04:29.798Z,97040.56
2022-10-14T15:07:35.114Z,97044.03
2022-10-14T15:10:38.038Z,97047.09
2022-10-14T15:13:49.086Z,97040.16
2022-10-14T15:16:54.305Z,97036.66
2022-10-14T15:19:57.940Z,97040.94
2022-10-14T15:23:03.447Z,97032.53
2022-10-14T15:26:06.851Z,97022.59
2022-10-14T15:29:18.683Z,97026.69
2022-10-14T15:32:21.905Z,97032.00
2022-10-14T15:35:25.757Z,97038.78
2022-10-14T15:41:34.781Z,97033.09
2022-10-14T15:44:37.418Z,97032.13
2022-10-14T15:47:40.221Z,97030.50
2022-10-14T15:50:44.916Z,97027.69
2022-10-14T15:53:49.082Z,97011.75
2022-10-14T15:56:51.813Z,97006.31
2022-10-14T15:59:54.643Z,97005.09
2022-10-14T16:03:01.991Z,97000.47
2022-10-14T16:06:05.014Z,97000.09
2022-10-14T16:09:09.325Z,96991.53
2022-10-14T16:12:13.869Z,96984.03
2022-10-14T16:15:20.696Z,96981.81
2022-10-14T16:18:24.643Z,96984.28
2022-10-14T16:21:31.468Z,96976.19
2022-10-14T16:24:35.630Z,96973.53
2022-10-14T16:27:41.951Z,96960.50
2022-10-14T16:30:48.634Z,96966.03
2022-10-14T16:33:51.655Z,96953.84
2022-10-14T16:36:55.574Z,96952.22
2022-10-14T16:39:59.627Z,96951.09
2022-10-14T16:43:02.666Z,96942.97
2022-10-14T16:46:06.843Z,96956.06
2022-10-14T16:49:10.464Z,96947.28
2022-10-14T16:52:13.646Z,96949.56
2022-10-14T16:55:18.263Z,96954.28
2022-10-14T16:58:21.942Z,96943.88
2022-10-14T17:01:25.114Z,96958.97
2022-10-14T17:04:27.871Z,96957.34
2022-10-14T17:07:33.939Z,96964.28
2022-10-14T17:10:39.332Z,96961.44
2022-10-14T17:13:42.082Z,96963.09
2022-10-14T17:16:46.198Z,96967.94
2022-10-14T17:19:50.761Z,96956.16
2022-10-14T17:22:53.572Z,96949.22
2022-10-14T17:25:57.671Z,96953.72
2022-10-14T17:29:00.538Z,96964.75
2022-10-14T17:32:03.258Z,96959.88
2022-10-14T17:35:07.543Z,96954.75
2022-10-14T17:38:11.900Z,96955.41
2022-10-14T17:41:16.277Z,96948.69
2022-10-14T17:44:19.084Z,96954.81
2022-10-14T17:47:24.767Z,96946.25
2022-10-14T17:50:28.045Z,96948.88
2022-10-14T17:53:31.151Z,96949.72
2022-10-14T17:56:36.253Z,96946.50
2022-10-14T17:59:39.135Z,96949.13
2022-10-14T18:02:41.915Z,96956.47
2022-10-14T18:05:48.147Z,96953.81
2022-10-14T18:08:52.885Z,96958.31
2022-10-14T18:12:13.093Z,96956.84
2022-10-14T18:15:16.034Z,96948.09
2022-10-14T18:18:18.822Z,96935.13
2022-10-14T18:21:21.741Z,96932.91
2022-10-14T18:24:24.514Z,96935.97
2022-10-14T18:27:28.558Z,96936.78
2022-10-14T18:30:31.201Z,96927.41
2022-10-14T18:33:35.152Z,96918.44
2022-10-14T18:36:38.294Z,96913.00
2022-10-14T18:39:41.053Z,96913.78
2022-10-14T18:42:45.213Z,96914.63
2022-10-14T18:45:47.958Z,96920.13
2022-10-14T18:48:51.988Z,96915.06
2022-10-14T18:51:55.453Z,96912.41
2022-10-14T18:54:59.010Z,96917.31
2022-10-14T18:58:03.173Z,96914.44
2022-10-14T19:01:06.250Z,96916.50
2022-10-14T19:04:10.606Z,96910.00
2022-10-14T19:07:13.377Z,96913.25
2022-10-14T19:10:16.205Z,96910.81
2022-10-14T19:13:20.299Z,96901.03
2022-10-14T19:16:24.238Z,96897.38
2022-10-14T19:19:27.095Z,96895.75
2022-10-14T19:22:29.848Z,96888.84
2022-10-14T19:25:33.167Z,96888.84
2022-10-14T19:28:37.359Z,96888.44
2022-10-14T19:31:40.960Z,96879.09
2022-10-14T19:34:47.178Z,96876.44
2022-10-14T19:37:50.092Z,96872.16
2022-10-14T19:40:52.746Z,96875.84
2022-10-14T19:43:57.566Z,96883.78
2022-10-14T19:47:00.226Z,96887.03
2022-10-14T19:50:02.929Z,96881.09
2022-10-14T19:53:05.636Z,96869.09
2022-10-14T19:56:09.384Z,96879.03
2022-10-14T19:59:14.129Z,96874.13
2022-10-14T20:02:16.927Z,96857.06
2022-10-14T20:05:19.615Z,96873.53
2022-10-14T20:08:22.493Z,96869.44
2022-10-14T20:11:25.305Z,96872.06
2022-10-14T20:14:30.500Z,96873.28
2022-10-14T20:17:33.426Z,96885.09
2022-10-14T20:20:39.700Z,96873.50
2022-10-14T20:23:42.479Z,96878.16
2022-10-14T20:26:45.245Z,96883.88
2022-10-14T20:29:49.310Z,96895.91
2022-10-14T20:32:53.595Z,96902.88
2022-10-14T20:36:02.596Z,96910.75
2022-10-14T20:39:05.421Z,96907.13
2022-10-14T20:42:08.552Z,96928.69
2022-10-14T20:45:12.734Z,96938.09
2022-10-14T20:48:15.395Z,96955.22
2022-10-14T20:51:19.615Z,96971.06
2022-10-14T20:54:22.425Z,96968.22
2022-10-14T20:57:25.306Z,96970.66
2022-10-14T21:00:29.688Z,96975.50
2022-10-14T21:03:32.449Z,96970.22
2022-10-14T21:06:35.698Z,96971.44
2022-10-14T21:09:38.403Z,96969.22
2022-10-14T21:12:43.136Z,96980.03
2022-10-14T21:15:49.511Z,96992.22
2022-10-14T21:18:55.334Z,96998.13
2022-10-14T21:22:00.418Z,97010.75
2022-10-14T21:25:03.350Z,97010.59
2022-10-14T21:28:06.170Z,97036.63
2022-10-14T21:31:12.162Z,97058.63
2022-10-14T21:34:16.712Z,97067.59
2022-10-14T21:37:20.433Z,97068.78
2022-10-14T21:40:23.100Z,97060.06
2022-10-14T21:43:25.747Z,97075.31
2022-10-14T21:46:29.852Z,97080.22
2022-10-14T21:49:32.552Z,97091.59
2022-10-14T21:52:35.255Z,97074.94
2022-10-14T21:55:37.897Z,97094.91
2022-10-14T21:58:40.914Z,97089.41
2022-10-14T22:01:44.982Z,97086.75
2022-10-14T22:04:47.715Z,97095.09
2022-10-14T22:07:50.373Z,97085.38
2022-10-14T22:10:53.075Z,97094.53
2022-10-14T22:13:56.437Z,97102.66
2022-10-14T22:17:00.489Z,97102.66
2022-10-14T22:20:03.269Z,97100.63
2022-10-14T22:23:05.926Z,97106.97
2022-10-14T22:26:09.525Z,97110.41
2022-10-14T22:29:13.739Z,97122.22
2022-10-14T22:32:17.767Z,97129.16
2022-10-14T22:35:20.470Z,97125.28
2022-10-14T22:38:23.289Z,97133.44
2022-10-14T22:41:28.868Z,97127.94
2022-10-14T22:44:33.746Z,97146.66
2022-10-14T22:47:37.969Z,97142.19
2022-10-14T22:50:40.699Z,97147.69
2022-10-14T22:53:44.495Z,97156.44
2022-10-14T22:56:47.179Z,97149.13
2022-10-14T22:59:49.953Z,97160.31
2022-10-14T23:02:54.166Z,97156.41
2022-10-14T23:06:00.736Z,97161.72
2022-10-14T23:09:03.414Z,97166.63
2022-10-14T23:12:06.594Z,97172.50
2022-10-14T23:15:09.918Z,97171.91
2022-10-14T23:18:13.911Z,97172.50
2022-10-14T23:21:17.937Z,97170.47
2022-10-14T23:24:20.601Z,97157.44
2022-10-14T23:27:23.241Z,97146.22
2022-10-14T23:30:25.952Z,97145.44
2022-10-14T23:33:30.526Z,97151.53
2022-10-14T23:36:33.545Z,97144.63
2022-10-14T23:39:36.196Z,97144.22
2022-10-14T23:42:38.866Z,97140.13
2022-10-14T23:45:41.618Z,97139.75
2022-10-14T23:48:51.528Z,97142.59
2022-10-14T23:52:03.710Z,97138.94
2022-10-14T23:55:06.968Z,97128.72
2022-10-14T23:58:09.920Z,97118.78
